Time;durP1;ratioP1;P1;durP2;ratioP2;P2;SDS_P1;SDS_P2;PMS_P1;PMS_P2;Temp;Humidity;BMP_temperature;BMP_pressure;BME280_temperature;BME280_humidity;BME280_pressure;Samples;Min_cycle;Max_cycle;Signal;HPM_P1;HPM_P2
2022/06/06 00:01:18;;;;;;;5.08;2.52;;;;;;;17.85;74.93;99012.69;1588368;89;21602;-78
2022/06/06 00:03:46;;;;;;;4.92;2.55;;;;;;;17.76;75.01;99008.74;1597794;89;21067;-79
2022/06/06 00:06:17;;;;;;;5.95;2.62;;;;;;;17.67;75.27;99008.80;1588570;89;21085;-81
2022/06/06 00:08:45;;;;;;;4.78;2.20;;;;;;;17.62;75.61;99014.77;1586474;89;21570;-79
2022/06/06 00:11:12;;;;;;;5.10;2.17;;;;;;;17.55;75.32;99017.37;1576927;89;21066;-78
2022/06/06 00:13:43;;;;;;;4.25;2.00;;;;;;;17.52;75.27;99014.05;1587602;89;21517;-77
2022/06/06 00:16:11;;;;;;;4.28;2.05;;;;;;;17.47;75.56;99012.53;1593539;89;21125;-77
2022/06/06 00:18:38;;;;;;;7.67;2.58;;;;;;;17.42;75.82;99013.23;1588756;89;21029;-80
2022/06/06 00:21:09;;;;;;;4.20;2.15;;;;;;;17.37;76.16;99007.84;1592472;89;21609;-80
2022/06/06 00:23:38;;;;;;;4.45;2.20;;;;;;;17.35;76.02;99008.39;1589566;89;20998;-78
2022/06/06 00:26:07;;;;;;;4.62;2.15;;;;;;;17.32;76.49;99000.69;1590966;89;21085;-78
2022/06/06 00:28:36;;;;;;;7.00;2.27;;;;;;;17.25;76.46;98999.72;1586052;89;21133;-80
2022/06/06 00:34:48;;;;;;;6.37;2.10;;;;;;;17.26;76.32;99005.34;1587184;88;21063;-78
2022/06/06 00:36:17;;;;;;;5.00;1.80;;;;;;;17.19;74.96;99001.80;1586506;89;21078;-79
2022/06/06 00:38:44;;;;;;;3.00;1.95;;;;;;;17.14;74.68;99004.69;1575605;89;21113;-78
2022/06/06 00:41:11;;;;;;;3.15;1.85;;;;;;;17.13;74.28;99004.32;1587386;89;21034;-79
2022/06/06 00:43:38;;;;;;;4.28;2.02;;;;;;;17.08;73.99;99007.64;1570975;89;21086;-78
2022/06/06 00:46:07;;;;;;;3.00;1.87;;;;;;;17.05;73.76;99006.48;1588772;89;21105;-79
2022/06/06 00:48:41;;;;;;;3.17;2.05;;;;;;;16.99;74.41;99000.23;1569623;91;21086;-79
2022/06/06 00:51:10;;;;;;;;;;;;;;;16.94;74.46;98999.18;1593625;89;21041;-79
2022/06/06 00:53:53;;;;;;;3.83;1.92;;;;;;;16.93;74.01;98997.94;1582059;91;20582;-79
2022/06/06 00:56:25;;;;;;;4.03;1.90;;;;;;;16.86;73.93;99001.36;1581192;89;21078;-77
2022/06/06 00:58:56;;;;;;;2.12;1.42;;;;;;;16.82;73.91;98999.36;1570438;89;21559;-81
2022/06/06 01:01:26;;;;;;;2.95;1.57;;;;;;;16.76;74.11;98999.64;1593093;89;21026;-79
2022/06/06 01:03:56;;;;;;;3.50;1.60;;;;;;;16.76;73.78;99007.52;1568212;89;21091;-79
2022/06/06 01:06:24;;;;;;;2.80;1.60;;;;;;;16.73;73.70;98997.64;1585131;89;21116;-79
2022/06/06 01:08:52;;;;;;;3.92;1.70;;;;;;;16.67;73.87;98998.36;1573604;89;21639;-78
2022/06/06 01:11:19;;;;;;;2.87;1.50;;;;;;;16.66;73.96;98998.43;1592267;89;21002;-81
2022/06/06 01:13:47;;;;;;;5.47;1.60;;;;;;;16.67;74.05;99003.61;1585709;89;22232;-81
2022/06/06 01:16:31;;;;;;;2.85;1.72;;;;;;;16.62;73.88;98999.52;1586986;89;21037;-79
2022/06/06 01:19:15;;;;;;;3.37;1.60;;;;;;;16.64;74.03;98998.50;1592910;89;21035;-79
2022/06/06 01:22:17;;;;;;;4.92;1.60;;;;;;;16.62;73.39;99006.92;1580637;89;21061;-78
2022/06/06 01:25:17;;;;;;;2.20;1.60;;;;;;;16.63;73.22;99011.70;1562935;89;21055;-78
2022/06/06 01:28:25;;;;;;;4.05;1.70;;;;;;;16.59;72.87;99004.91;1560293;90;21104;-77
2022/06/06 01:30:57;;;;;;;2.47;1.60;;;;;;;16.55;72.79;99006.84;1569329;89;21086;-78
2022/06/06 01:33:24;;;;;;;2.92;1.70;;;;;;;16.48;72.48;98998.91;1585410;89;21061;-78
2022/06/06 01:35:51;;;;;;;9.03;1.90;;;;;;;16.44;72.32;99000.83;1594158;89;21519;-78
2022/06/06 01:38:21;;;;;;;8.98;1.80;;;;;;;16.37;72.53;99005.99;1582486;89;21397;-78
2022/06/06 01:40:56;;;;;;;5.65;1.70;;;;;;;16.33;72.87;99006.23;1592800;89;21046;-78
2022/06/06 01:43:31;;;;;;;2.60;1.57;;;;;;;16.24;72.97;99003.62;1560326;90;21052;-79
2022/06/06 01:46:11;;;;;;;7.35;1.77;;;;;;;16.20;73.64;99006.85;1560371;88;21091;-78
2022/06/06 01:48:41;;;;;;;2.20;1.40;;;;;;;16.16;73.63;99012.33;1570023;90;21052;-78
2022/06/06 01:51:20;;;;;;;2.50;1.60;;;;;;;16.12;73.98;99015.56;1569174;90;21053;-78
2022/06/06 01:53:47;;;;;;;3.35;1.60;;;;;;;16.09;74.01;99012.64;1597734;89;21569;-78
2022/06/06 01:56:18;;;;;;;2.80;1.27;;;;;;;16.07;73.98;99014.45;1590538;89;21064;-78
2022/06/06 01:58:45;;;;;;;2.98;1.50;;;;;;;16.08;74.11;99018.79;1594439;89;21132;-79
2022/06/06 02:01:11;;;;;;;4.78;1.70;;;;;;;16.03;74.49;99020.77;1592348;89;21106;-78
2022/06/06 02:03:38;;;;;;;2.67;1.52;;;;;;;16.00;74.48;99020.94;1573077;90;21596;-79
2022/06/06 02:06:05;;;;;;;2.77;1.40;;;;;;;16.00;75.25;99023.56;1572883;90;21019;-78
2022/06/06 02:08:33;;;;;;;2.67;1.50;;;;;;;16.05;74.86;99028.58;1572936;90;21036;-78
2022/06/06 02:11:00;;;;;;;3.33;1.70;;;;;;;16.08;74.76;99035.84;1581217;90;21078;-78
2022/06/06 02:13:27;;;;;;;7.45;1.82;;;;;;;16.04;74.65;99031.66;1570704;90;21537;-78
2022/06/06 02:15:53;;;;;;;5.97;1.90;;;;;;;15.97;74.71;99021.55;1576268;90;21070;-78
2022/06/06 02:18:22;;;;;;;5.08;1.72;;;;;;;15.97;74.88;99037.28;1568807;90;21098;-78
2022/06/06 02:20:49;;;;;;;2.22;1.60;;;;;;;15.94;74.46;99037.44;1590292;90;21148;-78
2022/06/06 02:23:16;;;;;;;5.50;2.08;;;;;;;15.90;74.75;99031.02;1582070;90;21550;-79
2022/06/06 02:25:43;;;;;;;3.00;1.75;;;;;;;15.89;74.82;99028.47;1578379;90;21212;-79
2022/06/06 02:28:11;;;;;;;4.90;1.90;;;;;;;15.84;74.17;99021.30;1584224;90;21570;-77
2022/06/06 02:30:39;;;;;;;5.50;1.67;;;;;;;15.78;73.85;99027.67;1574199;90;21076;-78
2022/06/06 02:33:06;;;;;;;4.12;1.70;;;;;;;15.72;73.75;99031.88;1582805;90;21618;-78
2022/06/06 02:35:38;;;;;;;4.53;1.80;;;;;;;15.65;74.31;99034.38;1577292;90;21056;-78
2022/06/06 02:38:07;;;;;;;2.92;1.45;;;;;;;15.61;75.23;99034.13;1574087;90;21086;-77
2022/06/06 02:40:34;;;;;;;5.62;1.87;;;;;;;15.59;74.78;99034.66;1579543;90;21116;-81
2022/06/06 02:43:01;;;;;;;4.97;1.70;;;;;;;15.54;74.02;99028.78;1585598;90;21559;-79
2022/06/06 02:45:28;;;;;;;5.15;1.80;;;;;;;15.51;74.49;99030.63;1590959;89;21085;-78
2022/06/06 02:47:59;;;;;;;2.85;1.50;;;;;;;15.51;74.98;99036.33;1569989;90;21021;-77
2022/06/06 02:50:30;;;;;;;4.78;1.62;;;;;;;15.51;75.13;99029.31;1581142;89;21065;-77
2022/06/06 02:52:58;;;;;;;2.98;1.67;;;;;;;15.51;75.78;99035.02;1566370;90;21640;-78
2022/06/06 02:55:26;;;;;;;3.22;1.72;;;;;;;15.53;76.27;99036.27;1578276;89;21095;-79
2022/06/06 02:57:54;;;;;;;4.42;2.50;;;;;;;15.50;76.47;99034.64;1568553;90;21036;-78
2022/06/06 03:00:26;;;;;;;3.70;2.20;;;;;;;15.51;76.13;99033.70;1573689;89;21062;-78
2022/06/06 03:02:53;;;;;;;4.63;2.40;;;;;;;15.50;76.93;99026.78;1582646;89;21087;-78
2022/06/06 03:05:20;;;;;;;4.25;2.17;;;;;;;15.52;76.95;99028.88;1574834;89;21113;-78
2022/06/06 03:08:25;;;;;;;5.25;2.27;;;;;;;15.53;77.64;99022.70;1580280;89;21058;-79
2022/06/06 03:11:18;;;;;;;9.08;2.00;;;;;;;15.56;77.55;99038.29;1583685;89;21055;-79
2022/06/06 03:14:14;;;;;;;6.28;1.85;;;;;;;15.61;77.85;99028.89;1590960;89;21089;-79
2022/06/06 03:23:36;;;;;;;5.47;1.92;;;;;;;15.70;76.77;99035.02;1589350;89;21085;-78
2022/06/06 03:26:32;;;;;;;5.12;2.08;;;;;;;15.67;76.84;99037.77;1567979;89;21590;-80
2022/06/06 03:29:13;;;;;;;5.47;2.02;;;;;;;15.69;76.56;99039.39;1585487;89;21983;-80
2022/06/06 03:31:50;;;;;;;11.18;1.95;;;;;;;15.70;76.60;99041.58;1582839;89;21571;-79
2022/06/06 03:34:44;;;;;;;7.03;1.62;;;;;;;15.73;76.44;99045.38;1570036;90;21001;-80
2022/06/06 03:37:21;;;;;;;3.25;1.67;;;;;;;15.73;75.70;99039.30;1559148;91;21064;-78
2022/06/06 03:40:40;;;;;;;3.52;1.40;;;;;;;15.71;75.59;99033.62;1582228;90;21088;-81
2022/06/06 03:43:18;;;;;;;4.50;1.60;;;;;;;15.74;76.03;99042.29;1571280;90;21090;-79
2022/06/06 03:46:19;;;;;;;4.80;1.90;;;;;;;15.71;75.23;99036.23;1571904;90;21090;-79
2022/06/06 03:49:23;;;;;;;4.65;1.52;;;;;;;15.73;75.68;99037.52;1573215;90;21351;-79
2022/06/06 03:52:04;;;;;;;2.95;1.87;;;;;;;15.76;74.56;99041.79;1578168;90;21038;-78
2022/06/06 03:54:50;;;;;;;8.05;2.00;;;;;;;15.75;74.32;99049.25;1575736;88;21048;-78
2022/06/06 03:57:22;;;;;;;3.47;1.98;;;;;;;15.74;75.32;99060.20;1571574;90;21068;-79
2022/06/06 03:59:56;;;;;;;4.75;1.80;;;;;;;15.76;74.85;99054.89;1575059;90;21153;-79
2022/06/06 04:02:36;;;;;;;4.17;1.92;;;;;;;15.79;75.10;99052.95;1573265;90;21465;-79
2022/06/06 04:05:08;;;;;;;5.85;1.95;;;;;;;15.84;75.01;99054.06;1592255;89;21041;-80
2022/06/06 04:07:35;;;;;;;4.83;1.70;;;;;;;15.87;74.93;99063.08;1587991;89;21066;-79
2022/06/06 04:10:04;;;;;;;2.95;1.80;;;;;;;15.90;74.89;99068.19;1561643;90;21088;-79
2022/06/06 04:13:01;;;;;;;3.30;1.65;;;;;;;15.98;74.97;99071.77;1584310;89;21059;-78
2022/06/06 04:16:06;;;;;;;7.78;2.50;;;;;;;16.04;75.01;99068.84;1586241;89;21105;-80
2022/06/06 04:18:57;;;;;;;4.53;1.80;;;;;;;16.10;74.75;99073.33;1557795;89;21120;-79
2022/06/06 04:21:45;;;;;;;7.17;2.15;;;;;;;16.17;73.89;99066.47;1554479;91;21139;-78
2022/06/06 04:24:26;;;;;;;5.10;2.17;;;;;;;16.23;73.84;99075.34;1579392;89;21115;-79
2022/06/06 04:27:25;;;;;;;17.73;2.80;;;;;;;16.28;73.36;99074.20;1570183;90;21033;-79
2022/06/06 04:30:28;;;;;;;6.83;2.45;;;;;;;16.34;73.19;99084.03;1572369;89;21103;-80
2022/06/06 04:33:19;;;;;;;2.70;1.60;;;;;;;16.37;73.14;99084.70;1584669;89;21063;-79
2022/06/06 04:36:17;;;;;;;4.92;1.75;;;;;;;16.43;72.56;99087.05;1577197;89;21081;-78
2022/06/06 04:39:24;;;;;;;2.77;1.72;;;;;;;16.47;72.46;99091.66;1589360;89;21130;-80
2022/06/06 04:42:09;;;;;;;5.85;1.72;;;;;;;16.50;72.32;99098.92;1564600;90;21029;-78
2022/06/06 04:44:41;;;;;;;4.62;1.80;;;;;;;16.54;72.08;99093.54;1595329;88;21036;-79
2022/06/06 04:47:28;;;;;;;8.45;3.55;;;;;;;16.57;72.40;99094.69;1584550;89;21117;-78
2022/06/06 04:49:57;;;;;;;7.55;2.10;;;;;;;16.63;72.57;99099.63;1569737;90;21622;-79
2022/06/06 04:52:24;;;;;;;3.12;1.67;;;;;;;16.72;72.77;99100.48;1563295;90;21046;-77
2022/06/06 04:54:54;;;;;;;6.67;1.80;;;;;;;16.77;72.18;99099.80;1591349;89;21012;-79
2022/06/06 04:57:22;;;;;;;2.67;1.50;;;;;;;16.86;72.29;99107.23;1580085;89;21037;-79
2022/06/06 04:59:51;;;;;;;3.17;1.90;;;;;;;16.95;72.25;99105.93;1564576;90;21611;-79
2022/06/06 05:02:21;;;;;;;6.67;2.20;;;;;;;17.02;71.79;99105.14;1561764;90;21013;-79
2022/06/06 05:04:48;;;;;;;5.03;1.85;;;;;;;17.06;71.05;99106.68;1575489;90;21131;-81
2022/06/06 05:07:23;;;;;;;3.98;1.98;;;;;;;17.07;70.84;99108.39;1572952;90;21687;-80
2022/06/06 05:10:15;;;;;;;2.30;1.60;;;;;;;17.09;70.69;99103.44;1579648;90;21053;-79
2022/06/06 05:13:38;;;;;;;4.65;1.77;;;;;;;17.15;70.74;99102.28;1586227;90;21120;-78
2022/06/06 05:16:28;;;;;;;2.60;1.70;;;;;;;17.22;70.12;99103.64;1559362;90;21084;-78
2022/06/06 05:19:24;;;;;;;3.33;1.85;;;;;;;17.26;70.21;99101.70;1581274;89;21620;-79
2022/06/06 05:22:35;;;;;;;8.28;2.25;;;;;;;17.31;69.76;99101.02;1575484;90;21196;-78
2022/06/06 05:25:25;;;;;;;3.37;1.90;;;;;;;17.36;69.73;99109.48;1602126;89;21048;-79
2022/06/06 05:28:14;;;;;;;7.00;1.82;;;;;;;17.42;69.15;99100.43;1571773;90;21044;-77
2022/06/06 05:30:58;;;;;;;2.35;1.65;;;;;;;17.42;69.15;99110.94;1571647;90;21541;-80
2022/06/06 05:33:33;;;;;;;3.62;1.42;;;;;;;17.46;69.15;99108.06;1570873;90;21618;-79
2022/06/06 05:36:35;;;;;;;6.70;1.65;;;;;;;17.52;69.07;99117.41;1584801;90;21646;-78
2022/06/06 05:39:22;;;;;;;2.83;1.32;;;;;;;17.58;69.29;99116.23;1571058;90;21088;-78
2022/06/06 05:42:07;;;;;;;2.22;1.42;;;;;;;17.72;69.23;99116.80;1570423;90;21062;-79
2022/06/06 05:44:45;;;;;;;3.70;1.50;;;;;;;17.80;69.26;99114.12;1576508;90;21084;-79
2022/06/06 05:47:32;;;;;;;3.20;1.40;;;;;;;17.92;68.21;99114.44;1586322;90;21120;-79
2022/06/06 05:50:38;;;;;;;2.90;1.52;;;;;;;17.97;68.73;99110.63;1575632;90;21137;-83
2022/06/06 05:53:29;;;;;;;3.92;1.60;;;;;;;18.03;67.57;99116.02;1586742;89;21114;-78
2022/06/06 05:56:13;;;;;;;3.22;1.60;;;;;;;18.05;67.39;99127.30;1584797;90;21113;-79
2022/06/06 05:59:02;;;;;;;2.85;1.77;;;;;;;18.09;67.27;99126.20;1573105;87;21554;-78
2022/06/06 06:01:46;;;;;;;6.03;1.70;;;;;;;18.13;67.44;99132.14;1578548;90;21076;-78
2022/06/06 06:04:39;;;;;;;8.30;1.70;;;;;;;18.17;67.84;99132.35;1560070;91;21065;-78
2022/06/06 06:07:41;;;;;;;3.37;1.70;;;;;;;18.26;68.09;99139.71;1576038;90;21558;-80
2022/06/06 06:10:28;;;;;;;8.38;4.47;;;;;;;18.36;67.78;99144.84;1568271;90;21604;-79
2022/06/06 06:13:41;;;;;;;8.65;2.98;;;;;;;18.37;67.30;99150.97;1576392;90;21096;-78
2022/06/06 06:16:10;;;;;;;7.67;2.72;;;;;;;18.45;68.33;99164.55;1574176;90;21557;-79
2022/06/06 06:18:48;;;;;;;4.22;1.90;;;;;;;18.60;67.95;99160.18;1584477;89;21037;-79
2022/06/06 06:21:23;;;;;;;4.22;2.12;;;;;;;18.65;67.44;99166.88;1567269;90;21221;-82
2022/06/06 06:24:01;;;;;;;5.87;2.17;;;;;;;18.68;67.65;99168.05;1561925;90;21067;-79
2022/06/06 06:26:30;;;;;;;3.80;1.70;;;;;;;18.74;67.52;99168.61;1571097;90;21152;-79
2022/06/06 06:29:01;;;;;;;5.28;2.25;;;;;;;18.82;67.91;99171.67;1569503;90;21129;-86
2022/06/06 06:31:34;;;;;;;3.37;2.10;;;;;;;18.91;68.03;99170.31;1544826;91;21014;-83
2022/06/06 06:34:14;;;;;;;4.90;2.08;;;;;;;19.00;68.44;99161.85;1575689;90;21051;-79
2022/06/06 06:36:58;;;;;;;4.00;2.25;;;;;;;19.13;67.90;99168.11;1570578;90;21136;-79
2022/06/06 06:39:55;;;;;;;4.37;2.45;;;;;;;19.18;68.28;99159.91;1569652;90;21033;-79
2022/06/06 06:42:57;;;;;;;6.65;2.55;;;;;;;19.30;68.05;99173.70;1572434;90;21125;-78
2022/06/06 06:45:29;;;;;;;5.70;2.40;;;;;;;19.39;68.13;99162.59;1568805;90;21703;-79
2022/06/06 06:48:03;;;;;;;6.12;2.72;;;;;;;19.48;67.66;99163.84;1566112;90;21128;-78
2022/06/06 06:51:11;;;;;;;7.50;2.47;;;;;;;19.48;67.59;99159.41;1572303;88;21060;-78
2022/06/06 06:53:57;;;;;;;5.20;2.65;;;;;;;19.50;67.66;99159.32;1565964;89;21892;-79
2022/06/06 06:56:54;;;;;;;6.62;3.30;;;;;;;19.57;67.80;99164.58;1568947;90;21100;-79
2022/06/06 06:59:38;;;;;;;6.03;3.20;;;;;;;19.67;68.17;99159.59;1572195;90;21130;-79
2022/06/06 07:08:51;;;;;;;7.28;2.95;;;;;;;20.16;67.17;99158.36;1556997;90;21028;-79
2022/06/06 07:11:53;;;;;;;8.25;3.17;;;;;;;20.15;67.18;99153.53;1522305;90;21173;-79
2022/06/06 07:14:43;;;;;;;13.93;7.97;;;;;;;20.28;67.34;99157.57;1562753;90;21127;-78
2022/06/06 07:17:11;;;;;;;8.23;2.77;;;;;;;20.42;67.40;99160.16;1559822;90;21635;-78
2022/06/06 07:19:58;;;;;;;4.25;2.75;;;;;;;20.60;67.04;99155.52;1556702;91;21119;-79
2022/06/06 07:22:59;;;;;;;5.45;2.92;;;;;;;20.76;66.44;99157.16;1561870;89;21113;-79
2022/06/06 07:24:59;;;;;;;5.97;2.80;;;;;;;20.84;66.33;99158.33;1565346;89;21137;-78
2022/06/06 07:27:26;;;;;;;4.42;2.95;;;;;;;20.95;65.59;99155.44;1560227;90;21121;-79
2022/06/06 07:29:52;;;;;;;4.42;3.08;;;;;;;21.05;65.32;99151.25;1568380;90;21080;-78
2022/06/06 07:32:37;;;;;;;8.78;2.62;;;;;;;21.23;65.30;99158.41;1561234;90;21079;-78
2022/06/06 07:35:21;;;;;;;5.72;2.90;;;;;;;21.30;65.31;99150.89;1561863;90;21109;-79
2022/06/06 07:38:13;;;;;;;6.70;2.67;;;;;;;21.45;65.05;99157.81;1564072;90;21120;-79
2022/06/06 07:41:09;;;;;;;6.60;2.40;;;;;;;21.52;64.22;99154.26;1564708;90;21108;-78
2022/06/06 07:43:52;;;;;;;4.00;2.35;;;;;;;21.56;64.10;99153.92;1544377;92;21145;-78
2022/06/06 07:46:38;;;;;;;5.58;2.22;;;;;;;21.63;63.84;99154.37;1535599;92;21085;-79
2022/06/06 07:49:16;;;;;;;6.65;2.95;;;;;;;21.70;64.37;99158.25;1549377;91;21053;-79
2022/06/06 07:51:54;;;;;;;6.97;2.30;;;;;;;21.71;64.04;99156.00;1548950;91;21658;-79
2022/06/06 07:54:29;;;;;;;4.30;2.70;;;;;;;21.83;63.62;99156.45;1554404;88;21037;-78
2022/06/06 07:57:07;;;;;;;3.90;2.45;;;;;;;21.79;63.29;99159.43;1563916;90;21055;-78
2022/06/06 08:00:07;;;;;;;3.87;2.50;;;;;;;21.83;63.19;99154.28;1563640;90;21621;-79
2022/06/06 08:03:23;;;;;;;6.20;2.35;;;;;;;22.03;63.55;99155.03;1569633;90;21134;-79
2022/06/06 08:06:22;;;;;;;6.78;2.00;;;;;;;22.20;62.98;99154.28;1570645;90;21073;-78
2022/06/06 08:08:57;;;;;;;5.62;1.92;;;;;;;22.43;62.28;99146.03;1561689;90;21127;-78
2022/06/06 08:11:57;;;;;;;3.17;1.87;;;;;;;22.44;61.65;99139.77;1568134;89;21136;-78
2022/06/06 08:14:47;;;;;;;4.10;1.70;;;;;;;22.44;61.89;99140.63;1568816;90;21080;-79
2022/06/06 08:17:34;;;;;;;4.70;1.72;;;;;;;22.64;61.67;99135.19;1571321;89;21663;-79
2022/06/06 08:20:24;;;;;;;6.80;1.80;;;;;;;22.69;60.79;99140.13;1568695;90;21140;-78
2022/06/06 08:22:52;;;;;;;5.65;2.20;;;;;;;22.76;61.23;99142.70;1572785;90;21260;-78
2022/06/06 08:25:20;;;;;;;3.70;1.50;;;;;;;22.83;61.26;99135.95;1568481;90;21262;-79
2022/06/06 08:27:51;;;;;;;4.12;1.67;;;;;;;22.89;60.38;99137.80;1573690;90;21072;-80
2022/06/06 08:30:20;;;;;;;5.53;1.70;;;;;;;22.93;60.66;99136.11;1571042;90;21033;-79
2022/06/06 08:32:48;;;;;;;5.05;1.60;;;;;;;23.02;59.49;99130.65;1568697;90;21085;-79
2022/06/06 08:35:16;;;;;;;4.90;2.12;;;;;;;23.14;60.23;99129.70;1570525;90;21030;-79
2022/06/06 08:38:06;;;;;;;4.65;1.65;;;;;;;23.31;59.74;99122.25;1571619;90;21591;-79
2022/06/06 08:40:44;;;;;;;2.98;1.67;;;;;;;23.40;58.82;99122.88;1557634;90;21141;-79
2022/06/06 08:43:16;;;;;;;2.72;1.50;;;;;;;23.49;58.21;99116.83;1569933;90;21173;-80
2022/06/06 08:46:22;;;;;;;4.13;1.60;;;;;;;23.51;57.06;99116.72;1567803;90;21143;-80
2022/06/06 08:52:26;;;;;;;;;;;;;;;23.93;56.56;99123.59;1580062;90;21116;-81
2022/06/06 08:55:18;;;;;;;4.90;1.30;;;;;;;24.00;55.92;99113.69;1573332;90;20282;-80
2022/06/06 08:58:13;;;;;;;1.90;1.02;;;;;;;24.16;55.93;99121.76;1572481;90;21623;-79
2022/06/06 09:01:03;;;;;;;3.20;1.30;;;;;;;24.31;55.56;99117.86;1571442;90;21057;-80
2022/06/06 09:04:26;;;;;;;2.12;1.12;;;;;;;24.41;53.87;99125.44;1568598;90;21612;-79
2022/06/06 09:07:10;;;;;;;2.08;1.20;;;;;;;24.61;54.72;99121.62;1574829;90;21069;-80
2022/06/06 09:09:54;;;;;;;2.15;1.20;;;;;;;24.92;54.42;99117.75;1567356;90;21108;-79
2022/06/06 09:12:55;;;;;;;2.05;1.20;;;;;;;25.06;53.71;99120.08;1567733;90;21092;-80
2022/06/06 09:16:04;;;;;;;7.28;1.20;;;;;;;25.12;53.03;99120.88;1566825;90;21580;-80
2022/06/06 09:18:51;;;;;;;1.80;1.22;;;;;;;25.17;53.10;99124.00;1570071;88;21120;-79
2022/06/06 09:21:47;;;;;;;1.67;1.20;;;;;;;25.11;52.23;99128.52;1569187;88;21064;-80
2022/06/06 09:24:46;;;;;;;1.50;1.10;;;;;;;25.12;51.48;99126.69;1570970;90;21611;-79
2022/06/06 09:27:30;;;;;;;3.92;1.15;;;;;;;25.20;52.62;99126.39;1575090;90;21073;-79
2022/06/06 09:30:11;;;;;;;2.58;1.52;;;;;;;25.33;51.33;99122.23;1569522;90;21145;-83
2022/06/06 09:33:01;;;;;;;2.67;1.20;;;;;;;25.37;51.43;99125.48;1572117;90;21078;-80
2022/06/06 09:36:14;;;;;;;3.35;1.20;;;;;;;25.22;50.08;99125.46;1568299;90;21129;-81
2022/06/06 09:39:07;;;;;;;4.22;1.20;;;;;;;25.24;51.60;99120.84;1570085;90;21123;-80
2022/06/06 09:42:10;;;;;;;3.00;1.35;;;;;;;25.07;51.01;99123.11;1571049;90;21113;-79
2022/06/06 09:44:54;;;;;;;6.20;1.55;;;;;;;24.88;51.65;99120.31;1559167;90;21040;-80
2022/06/06 10:03:32;;;;;;;1.92;1.30;;;;;;;24.76;50.58;99104.41;1846779;76;22780;-81
2022/06/06 10:06:32;;;;;;;1.90;1.25;;;;;;;24.62;51.59;99106.05;1486877;75;10000117;-79
2022/06/06 10:09:38;;;;;;;2.40;1.50;;;;;;;24.83;50.56;99106.55;1753407;78;24284;-79
2022/06/06 10:12:31;;;;;;;1.85;1.30;;;;;;;24.98;51.43;99098.61;1737157;81;21042;-79
2022/06/06 10:15:24;;;;;;;2.47;1.37;;;;;;;25.20;50.34;99098.45;1739449;81;20998;-81
2022/06/06 10:18:37;;;;;;;3.35;1.30;;;;;;;25.45;50.25;99095.55;1733996;81;21078;-80
2022/06/06 10:21:31;;;;;;;5.35;1.65;;;;;;;25.68;48.58;99092.19;1737403;81;21061;-80
2022/06/06 10:24:09;;;;;;;;;;;;;;;25.86;50.31;99092.38;1738146;81;21041;-79
2022/06/06 10:27:03;;;;;;;2.25;1.20;;;;;;;26.04;49.83;99096.59;1734614;81;20170;-80
2022/06/06 10:30:11;;;;;;;1.57;1.30;;;;;;;26.24;49.90;99094.80;1679746;81;21032;-79
2022/06/06 10:33:20;;;;;;;2.90;1.40;;;;;;;26.50;49.14;99089.30;1736788;81;22250;-80
2022/06/06 10:36:16;;;;;;;1.80;1.30;;;;;;;26.77;49.18;99093.09;1738939;81;21947;-80
2022/06/06 10:39:11;;;;;;;1.50;1.22;;;;;;;26.95;47.96;99093.20;1731661;81;21039;-79
2022/06/06 10:42:11;;;;;;;4.25;1.50;;;;;;;26.95;45.13;99086.53;1734236;81;21590;-80
2022/06/06 10:44:55;;;;;;;3.90;1.40;;;;;;;26.90;43.74;99088.77;1736965;81;21018;-79
2022/06/06 10:47:50;;;;;;;5.80;1.57;;;;;;;26.90;45.50;99084.77;1736746;81;21115;-80
2022/06/06 10:51:36;;;;;;;3.17;1.75;;;;;;;27.05;44.48;99085.18;1429732;81;10000032;-80
2022/06/06 10:53:25;;;;;;;2.77;1.60;;;;;;;27.23;43.80;99078.60;1718046;82;21118;-81
2022/06/06 10:56:21;;;;;;;1.87;1.30;;;;;;;27.34;43.32;99072.63;1722872;82;21031;-81
2022/06/06 10:59:28;;;;;;;2.10;1.12;;;;;;;27.40;44.56;99070.34;1697365;82;21075;-81
2022/06/06 11:02:29;;;;;;;2.15;1.40;;;;;;;27.55;43.82;99067.04;1667331;82;21107;-80
2022/06/06 11:05:11;;;;;;;1.70;1.20;;;;;;;27.67;44.06;99056.17;1724007;82;21150;-80
2022/06/06 11:07:58;;;;;;;1.65;1.15;;;;;;;27.93;44.18;99054.52;1728822;82;21166;-80
2022/06/06 11:10:49;;;;;;;1.62;1.12;;;;;;;28.15;44.13;99056.38;1725345;82;21003;-83
2022/06/06 11:13:39;;;;;;;2.52;1.20;;;;;;;28.26;42.42;99048.14;1692375;83;21781;-82
2022/06/06 11:16:39;;;;;;;2.10;1.30;;;;;;;28.05;40.45;99059.62;1664437;85;21633;-80
2022/06/06 11:19:37;;;;;;;4.22;1.32;;;;;;;27.78;40.98;99058.65;1689556;83;21040;-81
2022/06/06 11:22:18;;;;;;;2.75;1.30;;;;;;;27.71;43.05;99054.88;1691255;83;21058;-81
2022/06/06 11:25:08;;;;;;;3.80;1.27;;;;;;;27.73;43.18;99052.40;1685092;83;21086;-81
2022/06/06 11:28:14;;;;;;;3.31;1.27;;;;;;;27.60;41.89;99053.27;1557568;83;10001331;-80
2022/06/06 11:31:07;;;;;;;9.00;1.40;;;;;;;27.50;43.27;99053.31;1757985;80;21098;-80
2022/06/06 11:33:55;;;;;;;24.25;14.73;;;;;;;27.64;43.20;99051.14;1760570;80;21608;-80
2022/06/06 11:37:06;;;;;;;5.92;2.62;;;;;;;27.85;43.48;99055.70;1758899;80;21066;-79
2022/06/06 11:40:12;;;;;;;3.77;1.50;;;;;;;28.03;42.06;99047.74;1757918;80;20983;-81
2022/06/06 11:42:55;;;;;;;2.35;1.40;;;;;;;28.01;42.67;99046.22;1758401;80;21097;-81
2022/06/06 11:46:00;;;;;;;2.12;1.37;;;;;;;28.08;42.62;99051.32;1621880;79;10000116;-82
2022/06/06 11:49:21;;;;;;;2.35;1.30;;;;;;;28.07;42.99;99052.30;1762709;80;21109;-85
2022/06/06 11:52:07;;;;;;;3.75;1.45;;;;;;;28.04;42.39;99056.63;1723843;83;21094;-80
2022/06/06 11:54:42;;;;;;;4.17;1.40;;;;;;;28.05;42.50;99047.09;1681973;84;21546;-82
2022/06/06 11:57:37;;;;;;;3.65;1.30;;;;;;;27.99;41.38;99034.85;1689372;84;21047;-79
2022/06/06 12:00:12;;;;;;;2.17;1.20;;;;;;;28.07;41.63;99038.94;1705838;82;21079;-82
2022/06/06 12:02:53;;;;;;;2.80;1.25;;;;;;;28.06;41.46;99037.27;1709381;82;21074;-81
2022/06/06 12:05:37;;;;;;;2.42;1.30;;;;;;;28.15;40.38;99038.54;1701816;83;21586;-81
2022/06/06 12:08:32;;;;;;;2.00;1.30;;;;;;;28.41;41.30;99040.44;1703590;83;21026;-81
2022/06/06 12:11:33;;;;;;;1.77;1.20;;;;;;;28.80;40.50;99032.56;1689825;83;21047;-82
2022/06/06 12:14:55;;;;;;;4.78;1.27;;;;;;;29.09;37.39;99033.09;1705695;83;20990;-80
2022/06/06 12:17:50;;;;;;;1.75;1.30;;;;;;;29.62;38.52;99030.34;1759499;79;21019;-83
2022/06/06 12:20:41;;;;;;;2.20;1.32;;;;;;;29.86;36.46;99031.77;1509152;79;10000298;-83
2022/06/06 12:23:33;;;;;;;2.15;1.35;;;;;;;30.56;38.18;99035.05;1754952;80;21082;-82
2022/06/06 12:26:21;;;;;;;2.22;1.17;;;;;;;31.55;36.79;99025.80;1754461;80;21031;-80
2022/06/06 12:29:30;;;;;;;2.65;1.32;;;;;;;32.62;35.97;99024.63;1756533;80;20925;-82
2022/06/06 12:32:21;;;;;;;4.92;1.60;;;;;;;33.47;33.48;99019.35;1755787;80;20982;-82
2022/06/06 12:35:09;;;;;;;2.75;1.50;;;;;;;34.19;33.59;99022.28;1711759;83;21035;-83
2022/06/06 12:38:12;;;;;;;3.12;1.20;;;;;;;35.28;33.02;99020.55;1704861;83;21022;-83
2022/06/06 12:40:55;;;;;;;2.52;1.15;;;;;;;36.26;26.09;99022.97;1703894;83;21078;-85
2022/06/06 12:44:02;;;;;;;2.95;0.98;;;;;;;37.20;29.66;99019.70;1703743;83;21012;-88
2022/06/06 12:46:59;;;;;;;1.72;1.10;;;;;;;37.65;27.80;99020.30;1702825;83;21084;-85
2022/06/06 12:49:55;;;;;;;8.78;1.40;;;;;;;38.14;23.72;99018.27;1709006;83;21547;-83
2022/06/06 12:53:02;;;;;;;1.70;1.10;;;;;;;38.35;24.73;99017.05;1700825;83;21040;-83
2022/06/06 12:55:54;;;;;;;2.12;1.30;;;;;;;38.82;25.87;99003.60;1685925;83;21039;-82
2022/06/06 12:58:37;;;;;;;2.42;1.10;;;;;;;38.87;25.22;99007.84;1686062;83;21047;-84
2022/06/06 13:01:40;;;;;;;2.47;1.00;;;;;;;39.16;24.64;98999.52;1684465;83;21056;-83
2022/06/06 13:04:27;;;;;;;2.30;1.25;;;;;;;39.73;21.70;98996.00;1689436;83;21027;-85
2022/06/06 13:07:43;;;;;;;3.20;2.20;;;;;;;40.14;24.68;98994.89;1702738;83;21549;-84
2022/06/06 13:10:44;;;;;;;2.85;1.22;;;;;;;40.72;22.95;98997.39;1704494;83;22278;-84
2022/06/06 13:13:31;;;;;;;1.92;1.02;;;;;;;40.20;23.63;99003.48;1403334;83;10000301;-86
2022/06/06 13:16:31;;;;;;;4.03;1.02;;;;;;;39.17;22.92;98996.55;1706239;83;21058;-85
2022/06/06 13:19:38;;;;;;;4.30;1.10;;;;;;;39.33;22.68;98996.47;1703840;84;21058;-85
2022/06/06 13:22:25;;;;;;;4.12;1.10;;;;;;;39.76;23.06;98994.16;1704382;83;21041;-85
2022/06/06 13:25:25;;;;;;;1.60;1.00;;;;;;;40.43;22.63;98991.84;1688811;83;21138;-85
2022/06/06 13:28:00;;;;;;;1.40;0.97;;;;;;;41.19;21.14;98991.95;1703648;83;21129;-83
2022/06/06 13:30:45;;;;;;;3.83;1.70;;;;;;;41.41;21.01;98989.39;1703368;83;21065;-84